sensor_id;sensor_type;location;lat;lon;timestamp;pressure;altitude;pressure_sealevel;temperature;humidity
72612;BME280;60655;52.182;4.474;2023-06-26T00:01:58;101132.94;;;23.74;60.93
72612;BME280;60655;52.182;4.474;2023-06-26T00:04:00;101133.75;;;23.74;61.08
72612;BME280;60655;52.182;4.474;2023-06-26T00:06:01;101134.22;;;23.63;61.25
72612;BME280;60655;52.182;4.474;2023-06-26T00:08:02;101135.69;;;23.55;61.72
72612;BME280;60655;52.182;4.474;2023-06-26T00:10:04;101134.00;;;23.59;61.47
72612;BME280;60655;52.182;4.474;2023-06-26T00:12:05;101137.91;;;23.53;61.84
72612;BME280;60655;52.182;4.474;2023-06-26T00:14:06;101134.94;;;23.49;61.42
72612;BME280;60655;52.182;4.474;2023-06-26T00:16:07;101139.91;;;23.42;61.59
72612;BME280;60655;52.182;4.474;2023-06-26T00:18:08;101141.47;;;23.30;61.95
72612;BME280;60655;52.182;4.474;2023-06-26T00:20:09;101147.13;;;23.33;62.10
72612;BME280;60655;52.182;4.474;2023-06-26T00:22:11;101153.13;;;23.30;61.90
72612;BME280;60655;52.182;4.474;2023-06-26T00:24:12;101143.16;;;23.07;62.36
72612;BME280;60655;52.182;4.474;2023-06-26T00:26:13;101149.44;;;23.02;62.35
72612;BME280;60655;52.182;4.474;2023-06-26T00:28:14;101147.03;;;23.01;62.42
72612;BME280;60655;52.182;4.474;2023-06-26T00:30:15;101150.50;;;22.82;63.16
72612;BME280;60655;52.182;4.474;2023-06-26T00:32:16;101155.22;;;22.72;63.10
72612;BME280;60655;52.182;4.474;2023-06-26T00:34:17;101160.19;;;22.65;63.21
72612;BME280;60655;52.182;4.474;2023-06-26T00:36:18;101156.28;;;22.52;63.63
72612;BME280;60655;52.182;4.474;2023-06-26T00:38:19;101148.69;;;22.25;64.49
72612;BME280;60655;52.182;4.474;2023-06-26T00:40:20;101146.50;;;22.27;64.98
72612;BME280;60655;52.182;4.474;2023-06-26T00:42:21;101154.22;;;22.15;65.83
72612;BME280;60655;52.182;4.474;2023-06-26T00:44:22;101169.66;;;22.14;66.30
72612;BME280;60655;52.182;4.474;2023-06-26T00:46:23;101151.00;;;22.13;66.42
72612;BME280;60655;52.182;4.474;2023-06-26T00:48:25;101158.06;;;22.09;66.71
72612;BME280;60655;52.182;4.474;2023-06-26T00:50:26;101149.91;;;22.14;66.95
72612;BME280;60655;52.182;4.474;2023-06-26T00:52:27;101163.25;;;22.00;67.41
72612;BME280;60655;52.182;4.474;2023-06-26T00:54:28;101168.50;;;21.86;68.31
72612;BME280;60655;52.182;4.474;2023-06-26T00:56:29;101169.63;;;21.80;68.63
72612;BME280;60655;52.182;4.474;2023-06-26T00:58:32;101167.38;;;21.59;69.62
72612;BME280;60655;52.182;4.474;2023-06-26T01:00:33;101164.41;;;21.55;70.13
72612;BME280;60655;52.182;4.474;2023-06-26T01:02:34;101160.44;;;21.42;70.61
72612;BME280;60655;52.182;4.474;2023-06-26T01:04:35;101150.44;;;21.43;70.43
72612;BME280;60655;52.182;4.474;2023-06-26T01:06:36;101163.66;;;21.49;70.68
72612;BME280;60655;52.182;4.474;2023-06-26T01:08:39;101149.91;;;21.41;70.83
72612;BME280;60655;52.182;4.474;2023-06-26T01:10:42;101162.31;;;21.47;71.01
72612;BME280;60655;52.182;4.474;2023-06-26T01:12:43;101166.84;;;21.56;70.79
72612;BME280;60655;52.182;4.474;2023-06-26T01:14:46;101148.22;;;21.50;70.62
72612;BME280;60655;52.182;4.474;2023-06-26T01:16:49;101163.13;;;21.47;71.09
72612;BME280;60655;52.182;4.474;2023-06-26T01:18:51;101170.06;;;21.59;70.82
72612;BME280;60655;52.182;4.474;2023-06-26T01:20:53;101162.81;;;21.54;71.21
72612;BME280;60655;52.182;4.474;2023-06-26T01:25:13;101149.38;;;21.39;71.95
72612;BME280;60655;52.182;4.474;2023-06-26T01:27:20;101157.50;;;21.39;72.17
72612;BME280;60655;52.182;4.474;2023-06-26T01:29:23;101160.44;;;21.42;72.10
72612;BME280;60655;52.182;4.474;2023-06-26T01:31:26;101163.28;;;21.22;72.94
72612;BME280;60655;52.182;4.474;2023-06-26T01:33:28;101172.19;;;21.22;73.19
72612;BME280;60655;52.182;4.474;2023-06-26T01:35:30;101174.59;;;21.19;73.22
72612;BME280;60655;52.182;4.474;2023-06-26T01:37:31;101164.72;;;20.99;74.14
72612;BME280;60655;52.182;4.474;2023-06-26T01:39:32;101164.44;;;21.01;74.40
72612;BME280;60655;52.182;4.474;2023-06-26T01:41:32;101158.50;;;20.99;74.77
72612;BME280;60655;52.182;4.474;2023-06-26T01:46:19;101170.09;;;21.04;75.35
72612;BME280;60655;52.182;4.474;2023-06-26T01:48:25;101170.69;;;20.91;75.77
72612;BME280;60655;52.182;4.474;2023-06-26T01:50:29;101161.81;;;20.80;75.99
72612;BME280;60655;52.182;4.474;2023-06-26T01:53:10;101169.97;;;20.65;76.58
72612;BME280;60655;52.182;4.474;2023-06-26T01:55:40;101183.19;;;20.72;76.55
72612;BME280;60655;52.182;4.474;2023-06-26T01:57:45;101170.81;;;20.55;77.20
72612;BME280;60655;52.182;4.474;2023-06-26T01:59:48;101171.34;;;20.52;77.81
72612;BME280;60655;52.182;4.474;2023-06-26T02:01:49;101165.72;;;20.44;77.58
72612;BME280;60655;52.182;4.474;2023-06-26T02:03:50;101189.72;;;20.50;77.71
72612;BME280;60655;52.182;4.474;2023-06-26T02:05:51;101179.44;;;20.52;77.54
72612;BME280;60655;52.182;4.474;2023-06-26T02:07:52;101174.84;;;20.58;77.12
72612;BME280;60655;52.182;4.474;2023-06-26T02:09:53;101174.84;;;20.53;77.41
72612;BME280;60655;52.182;4.474;2023-06-26T02:11:55;101186.72;;;20.57;77.19
72612;BME280;60655;52.182;4.474;2023-06-26T02:13:56;101189.72;;;20.50;77.64
72612;BME280;60655;52.182;4.474;2023-06-26T02:15:57;101188.41;;;20.43;77.99
72612;BME280;60655;52.182;4.474;2023-06-26T02:17:58;101194.81;;;20.57;77.04
72612;BME280;60655;52.182;4.474;2023-06-26T02:19:59;101192.69;;;20.54;77.33
72612;BME280;60655;52.182;4.474;2023-06-26T02:22:00;101193.75;;;20.58;76.65
72612;BME280;60655;52.182;4.474;2023-06-26T02:24:01;101190.78;;;20.54;76.84
72612;BME280;60655;52.182;4.474;2023-06-26T02:26:02;101178.41;;;20.48;77.48
72612;BME280;60655;52.182;4.474;2023-06-26T02:28:06;101179.19;;;20.54;76.67
72612;BME280;60655;52.182;4.474;2023-06-26T02:30:08;101180.84;;;20.50;76.78
72612;BME280;60655;52.182;4.474;2023-06-26T02:32:09;101181.88;;;20.54;76.91
72612;BME280;60655;52.182;4.474;2023-06-26T02:34:10;101177.59;;;20.48;76.78
72612;BME280;60655;52.182;4.474;2023-06-26T02:36:11;101180.84;;;20.45;76.67
72612;BME280;60655;52.182;4.474;2023-06-26T02:38:12;101187.06;;;20.40;77.14
72612;BME280;60655;52.182;4.474;2023-06-26T02:40:13;101201.03;;;20.52;76.77
72612;BME280;60655;52.182;4.474;2023-06-26T02:42:14;101203.25;;;20.45;76.69
72612;BME280;60655;52.182;4.474;2023-06-26T02:44:15;101203.78;;;20.37;76.71
72612;BME280;60655;52.182;4.474;2023-06-26T02:46:16;101210.00;;;20.38;77.42
72612;BME280;60655;52.182;4.474;2023-06-26T02:48:17;101199.16;;;20.28;77.24
72612;BME280;60655;52.182;4.474;2023-06-26T02:50:18;101203.50;;;20.39;76.98
72612;BME280;60655;52.182;4.474;2023-06-26T02:52:19;101206.75;;;20.46;77.16
72612;BME280;60655;52.182;4.474;2023-06-26T02:54:20;101210.00;;;20.38;77.23
72612;BME280;60655;52.182;4.474;2023-06-26T02:56:21;101228.31;;;20.26;77.64
72612;BME280;60655;52.182;4.474;2023-06-26T02:58:22;101218.06;;;20.28;77.69
72612;BME280;60655;52.182;4.474;2023-06-26T03:00:23;101229.94;;;20.37;77.44
72612;BME280;60655;52.182;4.474;2023-06-26T03:02:24;101237.47;;;20.24;77.15
72612;BME280;60655;52.182;4.474;2023-06-26T03:04:25;101245.59;;;20.04;78.63
72612;BME280;60655;52.182;4.474;2023-06-26T03:06:27;101251.53;;;20.16;78.02
72612;BME280;60655;52.182;4.474;2023-06-26T03:08:28;101249.91;;;20.20;77.56
72612;BME280;60655;52.182;4.474;2023-06-26T03:10:29;101243.97;;;20.18;77.79
72612;BME280;60655;52.182;4.474;2023-06-26T03:12:31;101246.13;;;20.11;77.83
72612;BME280;60655;52.182;4.474;2023-06-26T03:14:32;101249.09;;;20.15;77.81
72612;BME280;60655;52.182;4.474;2023-06-26T03:16:33;101253.69;;;20.14;78.09
72612;BME280;60655;52.182;4.474;2023-06-26T03:18:34;101238.31;;;20.10;77.66
72612;BME280;60655;52.182;4.474;2023-06-26T03:20:34;101247.72;;;20.22;77.60
72612;BME280;60655;52.182;4.474;2023-06-26T03:22:38;101253.13;;;20.28;77.15
72612;BME280;60655;52.182;4.474;2023-06-26T03:24:39;101259.34;;;20.23;77.21
72612;BME280;60655;52.182;4.474;2023-06-26T03:26:40;101258.53;;;20.22;77.39
72612;BME280;60655;52.182;4.474;2023-06-26T03:28:41;101251.53;;;20.16;77.30
72612;BME280;60655;52.182;4.474;2023-06-26T03:30:43;101255.31;;;20.15;77.09
72612;BME280;60655;52.182;4.474;2023-06-26T03:32:44;101266.63;;;20.12;77.60
72612;BME280;60655;52.182;4.474;2023-06-26T03:34:45;101271.22;;;20.17;77.71
72612;BME280;60655;52.182;4.474;2023-06-26T03:36:46;101265.03;;;20.16;77.71
72612;BME280;60655;52.182;4.474;2023-06-26T03:38:47;101262.84;;;20.13;77.60
72612;BME280;60655;52.182;4.474;2023-06-26T03:40:48;101263.13;;;20.07;77.83
72612;BME280;60655;52.182;4.474;2023-06-26T03:42:49;101259.06;;;20.04;77.73
72612;BME280;60655;52.182;4.474;2023-06-26T03:44:50;101268.78;;;20.15;77.58
72612;BME280;60655;52.182;4.474;2023-06-26T03:46:50;101270.66;;;20.05;77.41
72612;BME280;60655;52.182;4.474;2023-06-26T03:48:51;101268.22;;;19.98;78.14
72612;BME280;60655;52.182;4.474;2023-06-26T03:50:52;101271.47;;;20.10;77.66
72612;BME280;60655;52.182;4.474;2023-06-26T03:52:53;101264.72;;;20.08;77.56
72612;BME280;60655;52.182;4.474;2023-06-26T03:54:55;101269.03;;;19.94;77.80
72612;BME280;60655;52.182;4.474;2023-06-26T03:56:56;101277.94;;;19.99;78.23
72612;BME280;60655;52.182;4.474;2023-06-26T03:58:57;101284.97;;;20.05;77.92
72612;BME280;60655;52.182;4.474;2023-06-26T04:00:58;101289.53;;;20.05;78.20
72612;BME280;60655;52.182;4.474;2023-06-26T04:02:59;101290.31;;;19.95;78.37
72612;BME280;60655;52.182;4.474;2023-06-26T04:05:01;101286.84;;;19.89;78.42
72612;BME280;60655;52.182;4.474;2023-06-26T04:07:02;101297.09;;;19.87;78.44
72612;BME280;60655;52.182;4.474;2023-06-26T04:09:03;101304.63;;;19.91;78.29
72612;BME280;60655;52.182;4.474;2023-06-26T04:11:05;101304.34;;;19.82;78.62
72612;BME280;60655;52.182;4.474;2023-06-26T04:13:06;101303.56;;;19.92;78.24
72612;BME280;60655;52.182;4.474;2023-06-26T04:15:07;101313.81;;;20.05;77.30
72612;BME280;60655;52.182;4.474;2023-06-26T04:17:08;101313.81;;;20.00;76.87
72612;BME280;60655;52.182;4.474;2023-06-26T04:19:09;101309.78;;;20.02;76.40
72612;BME280;60655;52.182;4.474;2023-06-26T04:21:12;101316.22;;;19.96;76.43
72612;BME280;60655;52.182;4.474;2023-06-26T04:23:13;101321.63;;;20.01;75.63
72612;BME280;60655;52.182;4.474;2023-06-26T04:25:14;101309.72;;;19.82;76.13
72612;BME280;60655;52.182;4.474;2023-06-26T04:27:15;101332.16;;;20.08;75.50
72612;BME280;60655;52.182;4.474;2023-06-26T04:29:17;101328.69;;;20.12;75.05
72612;BME280;60655;52.182;4.474;2023-06-26T04:31:18;101320.31;;;20.09;74.05
72612;BME280;60655;52.182;4.474;2023-06-26T04:33:19;101314.63;;;20.10;73.58
72612;BME280;60655;52.182;4.474;2023-06-26T04:35:20;101331.38;;;20.12;73.61
72612;BME280;60655;52.182;4.474;2023-06-26T04:37:22;101322.44;;;20.07;73.17
72612;BME280;60655;52.182;4.474;2023-06-26T04:39:23;101332.94;;;19.93;73.71
72612;BME280;60655;52.182;4.474;2023-06-26T04:41:25;101328.09;;;19.95;73.95
72612;BME280;60655;52.182;4.474;2023-06-26T04:43:26;101329.19;;;19.99;74.07
72612;BME280;60655;52.182;4.474;2023-06-26T04:45:27;101334.31;;;20.01;74.02
72612;BME280;60655;52.182;4.474;2023-06-26T04:47:28;101344.81;;;19.87;74.77
72612;BME280;60655;52.182;4.474;2023-06-26T04:49:28;101337.78;;;19.96;74.24
72612;BME280;60655;52.182;4.474;2023-06-26T04:51:32;101351.28;;;19.96;74.61
72612;BME280;60655;52.182;4.474;2023-06-26T04:53:33;101354.00;;;20.06;74.41
72612;BME280;60655;52.182;4.474;2023-06-26T04:55:35;101355.09;;;20.10;74.41
72612;BME280;60655;52.182;4.474;2023-06-26T04:57:36;101359.41;;;20.06;75.13
72612;BME280;60655;52.182;4.474;2023-06-26T04:59:36;101363.97;;;19.96;76.08
72612;BME280;60655;52.182;4.474;2023-06-26T05:01:37;101367.75;;;20.00;76.69
72612;BME280;60655;52.182;4.474;2023-06-26T05:03:40;101377.47;;;20.06;77.13
72612;BME280;60655;52.182;4.474;2023-06-26T05:05:41;101377.69;;;19.84;77.69
72612;BME280;60655;52.182;4.474;2023-06-26T05:07:42;101377.97;;;19.93;77.85
72612;BME280;60655;52.182;4.474;2023-06-26T05:09:43;101385.53;;;19.91;78.01
72612;BME280;60655;52.182;4.474;2023-06-26T05:11:44;101387.72;;;20.04;77.47
72612;BME280;60655;52.182;4.474;2023-06-26T05:13:45;101386.09;;;20.03;77.33
72612;BME280;60655;52.182;4.474;2023-06-26T05:15:46;101385.53;;;19.91;77.55
72612;BME280;60655;52.182;4.474;2023-06-26T05:17:47;101387.41;;;19.95;77.25
72612;BME280;60655;52.182;4.474;2023-06-26T05:19:48;101381.47;;;19.93;77.34
72612;BME280;60655;52.182;4.474;2023-06-26T05:21:50;101379.59;;;19.94;76.89
72612;BME280;60655;52.182;4.474;2023-06-26T05:23:56;101389.88;;;20.07;76.23
72612;BME280;60655;52.182;4.474;2023-06-26T05:25:57;101383.69;;;20.11;75.98
72612;BME280;60655;52.182;4.474;2023-06-26T05:27:58;101406.31;;;20.00;76.26
72612;BME280;60655;52.182;4.474;2023-06-26T05:30:00;101412.81;;;20.09;76.50
72612;BME280;60655;52.182;4.474;2023-06-26T05:32:01;101399.06;;;20.06;76.57
72612;BME280;60655;52.182;4.474;2023-06-26T05:34:03;101406.34;;;20.05;76.67
72612;BME280;60655;52.182;4.474;2023-06-26T05:36:04;101410.09;;;20.04;76.41
72612;BME280;60655;52.182;4.474;2023-06-26T05:38:08;101426.56;;;20.03;76.56
72612;BME280;60655;52.182;4.474;2023-06-26T05:40:09;101429.50;;;20.01;75.86
72612;BME280;60655;52.182;4.474;2023-06-26T05:42:11;101413.41;;;20.16;75.49
72612;BME280;60655;52.182;4.474;2023-06-26T05:44:12;101436.31;;;20.24;74.92
72612;BME280;60655;52.182;4.474;2023-06-26T05:46:13;101439.78;;;20.04;72.81
72612;BME280;60655;52.182;4.474;2023-06-26T05:48:14;101454.38;;;20.08;72.36
72612;BME280;60655;52.182;4.474;2023-06-26T05:50:17;101450.63;;;20.14;72.14
72612;BME280;60655;52.182;4.474;2023-06-26T05:52:19;101448.56;;;19.79;72.19
72612;BME280;60655;52.182;4.474;2023-06-26T05:54:20;101459.03;;;19.71;72.69
72612;BME280;60655;52.182;4.474;2023-06-26T05:56:21;101459.09;;;19.81;72.28
72612;BME280;60655;52.182;4.474;2023-06-26T05:58:23;101452.31;;;19.73;72.83
72612;BME280;60655;52.182;4.474;2023-06-26T06:00:26;101452.81;;;19.65;72.67
72612;BME280;60655;52.182;4.474;2023-06-26T06:02:27;101444.50;;;19.77;72.40
72612;BME280;60655;52.182;4.474;2023-06-26T06:04:28;101445.66;;;19.86;71.48
72612;BME280;60655;52.182;4.474;2023-06-26T06:06:29;101457.09;;;20.13;71.27
72612;BME280;60655;52.182;4.474;2023-06-26T06:08:30;101466.84;;;20.30;69.96
72612;BME280;60655;52.182;4.474;2023-06-26T06:10:31;101467.31;;;20.11;69.31
72612;BME280;60655;52.182;4.474;2023-06-26T06:12:32;101464.38;;;20.18;69.39
72612;BME280;60655;52.182;4.474;2023-06-26T06:14:35;101467.88;;;20.13;69.87
72612;BME280;60655;52.182;4.474;2023-06-26T06:16:36;101473.22;;;20.03;70.29
72612;BME280;60655;52.182;4.474;2023-06-26T06:18:38;101488.66;;;20.13;70.76
72612;BME280;60655;52.182;4.474;2023-06-26T06:20:39;101485.13;;;20.12;69.78
72612;BME280;60655;52.182;4.474;2023-06-26T06:22:40;101484.88;;;20.14;68.85
72612;BME280;60655;52.182;4.474;2023-06-26T06:24:40;101484.13;;;20.34;68.19
72612;BME280;60655;52.182;4.474;2023-06-26T06:26:41;101479.75;;;20.17;68.12
72612;BME280;60655;52.182;4.474;2023-06-26T06:28:42;101481.06;;;20.05;68.40
72612;BME280;60655;52.182;4.474;2023-06-26T06:30:43;101483.97;;;19.98;69.51
72612;BME280;60655;52.182;4.474;2023-06-26T06:32:44;101486.44;;;20.05;67.80
72612;BME280;60655;52.182;4.474;2023-06-26T06:34:46;101496.22;;;20.26;67.06
72612;BME280;60655;52.182;4.474;2023-06-26T06:36:47;101490.13;;;20.41;66.39
72612;BME280;60655;52.182;4.474;2023-06-26T06:38:48;101501.13;;;20.34;65.99
72612;BME280;60655;52.182;4.474;2023-06-26T06:40:49;101505.75;;;20.39;65.22
72612;BME280;60655;52.182;4.474;2023-06-26T06:42:50;101498.78;;;20.53;64.89
72612;BME280;60655;52.182;4.474;2023-06-26T06:44:51;101505.78;;;20.54;64.79
72612;BME280;60655;52.182;4.474;2023-06-26T06:46:52;101508.75;;;20.42;64.40
72612;BME280;60655;52.182;4.474;2023-06-26T06:48:53;101520.06;;;20.39;65.44
72612;BME280;60655;52.182;4.474;2023-06-26T06:50:54;101526.31;;;20.55;64.85
72612;BME280;60655;52.182;4.474;2023-06-26T06:52:55;101534.75;;;20.74;64.56
72612;BME280;60655;52.182;4.474;2023-06-26T06:54:57;101531.84;;;20.28;64.63
72612;BME280;60655;52.182;4.474;2023-06-26T06:57:05;101544.47;;;20.12;65.20
72612;BME280;60655;52.182;4.474;2023-06-26T06:59:06;101554.06;;;19.93;65.67
72612;BME280;60655;52.182;4.474;2023-06-26T07:01:09;101546.81;;;19.99;66.13
72612;BME280;60655;52.182;4.474;2023-06-26T07:03:10;101546.59;;;20.05;65.00
72612;BME280;60655;52.182;4.474;2023-06-26T07:05:12;101546.75;;;19.83;66.21
72612;BME280;60655;52.182;4.474;2023-06-26T07:07:13;101552.22;;;19.99;65.12
72612;BME280;60655;52.182;4.474;2023-06-26T07:09:16;101537.69;;;20.05;65.92
72612;BME280;60655;52.182;4.474;2023-06-26T07:11:17;101545.94;;;20.35;65.06
72612;BME280;60655;52.182;4.474;2023-06-26T07:13:18;101550.34;;;20.56;64.72
72612;BME280;60655;52.182;4.474;2023-06-26T07:15:19;101551.91;;;20.37;64.59
72612;BME280;60655;52.182;4.474;2023-06-26T07:17:20;101543.63;;;20.64;64.00
72612;BME280;60655;52.182;4.474;2023-06-26T07:19:21;101556.47;;;20.37;64.40
72612;BME280;60655;52.182;4.474;2023-06-26T07:21:22;101569.91;;;20.27;63.91
72612;BME280;60655;52.182;4.474;2023-06-26T07:23:23;101560.72;;;20.28;63.83
72612;BME280;60655;52.182;4.474;2023-06-26T07:25:24;101570.69;;;20.22;64.47
72612;BME280;60655;52.182;4.474;2023-06-26T07:27:25;101558.44;;;20.46;63.71
72612;BME280;60655;52.182;4.474;2023-06-26T07:29:26;101567.34;;;20.47;62.57
72612;BME280;60655;52.182;4.474;2023-06-26T07:31:27;101555.03;;;20.19;63.25
72612;BME280;60655;52.182;4.474;2023-06-26T07:33:28;101579.72;;;20.38;62.91
72612;BME280;60655;52.182;4.474;2023-06-26T07:35:29;101572.09;;;20.35;62.94
72612;BME280;60655;52.182;4.474;2023-06-26T07:37:30;101581.66;;;20.52;62.51
72612;BME280;60655;52.182;4.474;2023-06-26T07:39:31;101585.47;;;20.62;62.60
72612;BME280;60655;52.182;4.474;2023-06-26T07:41:32;101586.31;;;20.72;62.46
72612;BME280;60655;52.182;4.474;2023-06-26T07:43:33;101587.16;;;20.88;62.29
72612;BME280;60655;52.182;4.474;2023-06-26T07:45:34;101581.75;;;20.78;61.78
72612;BME280;60655;52.182;4.474;2023-06-26T07:47:36;101589.88;;;20.93;61.96
72612;BME280;60655;52.182;4.474;2023-06-26T07:49:37;101597.50;;;21.06;62.11
72612;BME280;60655;52.182;4.474;2023-06-26T07:51:39;101601.44;;;20.73;62.58
72612;BME280;60655;52.182;4.474;2023-06-26T07:53:40;101591.44;;;20.69;62.91
72612;BME280;60655;52.182;4.474;2023-06-26T07:55:42;101599.91;;;20.98;62.29
72612;BME280;60655;52.182;4.474;2023-06-26T07:57:43;101599.38;;;21.01;61.94
72612;BME280;60655;52.182;4.474;2023-06-26T07:59:46;101601.19;;;20.85;60.62
72612;BME280;60655;52.182;4.474;2023-06-26T08:01:47;101612.19;;;20.63;61.29
72612;BME280;60655;52.182;4.474;2023-06-26T08:03:48;101614.31;;;20.46;62.20
72612;BME280;60655;52.182;4.474;2023-06-26T08:05:49;101611.06;;;20.49;61.57
72612;BME280;60655;52.182;4.474;2023-06-26T08:07:50;101620.91;;;20.28;62.61
72612;BME280;60655;52.182;4.474;2023-06-26T08:09:51;101625.16;;;20.61;62.13
72612;BME280;60655;52.182;4.474;2023-06-26T08:11:53;101605.00;;;20.89;61.80
72612;BME280;60655;52.182;4.474;2023-06-26T08:13:54;101610.44;;;21.09;61.17
72612;BME280;60655;52.182;4.474;2023-06-26T08:15:55;101615.84;;;21.14;61.87
72612;BME280;60655;52.182;4.474;2023-06-26T08:17:56;101621.53;;;21.13;60.70
72612;BME280;60655;52.182;4.474;2023-06-26T08:19:57;101622.88;;;21.00;60.62
72612;BME280;60655;52.182;4.474;2023-06-26T08:21:58;101615.31;;;21.07;60.52
72612;BME280;60655;52.182;4.474;2023-06-26T08:23:59;101620.19;;;21.05;59.72
72612;BME280;60655;52.182;4.474;2023-06-26T08:26:00;101624.75;;;21.10;59.50
72612;BME280;60655;52.182;4.474;2023-06-26T08:28:01;101620.72;;;21.02;60.86
72612;BME280;60655;52.182;4.474;2023-06-26T08:30:02;101626.13;;;21.07;60.46
72612;BME280;60655;52.182;4.474;2023-06-26T08:32:05;101613.06;;;20.74;61.21
72612;BME280;60655;52.182;4.474;2023-06-26T08:34:07;101629.97;;;21.27;60.28
72612;BME280;60655;52.182;4.474;2023-06-26T08:36:08;101631.06;;;21.46;59.82
72612;BME280;60655;52.182;4.474;2023-06-26T08:38:09;101629.72;;;21.33;59.73
72612;BME280;60655;52.182;4.474;2023-06-26T08:40:10;101642.03;;;21.09;59.80
72612;BME280;60655;52.182;4.474;2023-06-26T08:42:13;101631.53;;;21.17;60.23
72612;BME280;60655;52.182;4.474;2023-06-26T08:44:14;101652.88;;;21.14;60.66
72612;BME280;60655;52.182;4.474;2023-06-26T08:46:14;101648.06;;;21.21;60.26
72612;BME280;60655;52.182;4.474;2023-06-26T08:48:16;101650.38;;;20.87;61.89
72612;BME280;60655;52.182;4.474;2023-06-26T08:50:18;101656.38;;;21.04;60.87
72612;BME280;60655;52.182;4.474;2023-06-26T08:52:23;101655.25;;;20.95;61.01
72612;BME280;60655;52.182;4.474;2023-06-26T08:54:31;101652.38;;;21.22;60.61
72612;BME280;60655;52.182;4.474;2023-06-26T08:56:40;101648.38;;;21.35;59.65
72612;BME280;60655;52.182;4.474;2023-06-26T08:58:42;101658.91;;;21.41;60.11
72612;BME280;60655;52.182;4.474;2023-06-26T09:00:44;101663.94;;;21.12;59.71
72612;BME280;60655;52.182;4.474;2023-06-26T09:02:45;101669.63;;;21.06;60.15
72612;BME280;60655;52.182;4.474;2023-06-26T09:04:47;101669.38;;;21.07;60.57
72612;BME280;60655;52.182;4.474;2023-06-26T09:06:49;101653.34;;;20.90;60.21
72612;BME280;60655;52.182;4.474;2023-06-26T09:08:50;101673.84;;;20.81;60.66
72612;BME280;60655;52.182;4.474;2023-06-26T09:10:52;101667.22;;;20.47;60.80
72612;BME280;60655;52.182;4.474;2023-06-26T09:12:56;101672.69;;;20.67;61.08
72612;BME280;60655;52.182;4.474;2023-06-26T09:15:01;101693.94;;;21.06;60.39
72612;BME280;60655;52.182;4.474;2023-06-26T09:17:03;101691.78;;;21.13;59.81
72612;BME280;60655;52.182;4.474;2023-06-26T09:19:10;101699.25;;;20.90;60.27
72612;BME280;60655;52.182;4.474;2023-06-26T09:21:12;101677.25;;;20.62;60.52
72612;BME280;60655;52.182;4.474;2023-06-26T09:23:13;101690.69;;;20.46;60.83
72612;BME280;60655;52.182;4.474;2023-06-26T09:25:16;101691.53;;;20.57;60.56
72612;BME280;60655;52.182;4.474;2023-06-26T09:27:17;101689.88;;;20.51;61.06
72612;BME280;60655;52.182;4.474;2023-06-26T09:29:19;101687.31;;;20.71;60.58
72612;BME280;60655;52.182;4.474;2023-06-26T09:31:20;101695.50;;;20.92;59.92
72612;BME280;60655;52.182;4.474;2023-06-26T09:33:21;101701.88;;;20.70;59.88
72612;BME280;60655;52.182;4.474;2023-06-26T09:35:23;101707.19;;;21.17;59.38
72612;BME280;60655;52.182;4.474;2023-06-26T09:37:24;101700.53;;;21.30;58.74
72612;BME280;60655;52.182;4.474;2023-06-26T09:39:25;101701.88;;;21.43;57.95
72612;BME280;60655;52.182;4.474;2023-06-26T09:41:26;101707.47;;;21.16;57.79
72612;BME280;60655;52.182;4.474;2023-06-26T09:43:27;101712.41;;;21.39;58.00
72612;BME280;60655;52.182;4.474;2023-06-26T09:45:33;101718.38;;;21.36;57.31
72612;BME280;60655;52.182;4.474;2023-06-26T09:47:35;101723.09;;;21.09;58.31
72612;BME280;60655;52.182;4.474;2023-06-26T09:49:36;101717.31;;;21.47;58.08
72612;BME280;60655;52.182;4.474;2023-06-26T09:51:39;101734.59;;;21.36;57.02
72612;BME280;60655;52.182;4.474;2023-06-26T09:53:41;101739.19;;;21.31;57.25
72612;BME280;60655;52.182;4.474;2023-06-26T09:55:42;101745.13;;;21.33;57.61
72612;BME280;60655;52.182;4.474;2023-06-26T09:57:49;101739.47;;;21.44;57.35
72612;BME280;60655;52.182;4.474;2023-06-26T09:59:50;101740.09;;;20.99;57.69
72612;BME280;60655;52.182;4.474;2023-06-26T10:01:58;101737.94;;;20.96;58.74
72612;BME280;60655;52.182;4.474;2023-06-26T10:04:00;101745.03;;;21.17;58.71
72612;BME280;60655;52.182;4.474;2023-06-26T10:06:02;101748.63;;;21.38;57.82
72612;BME280;60655;52.182;4.474;2023-06-26T10:08:04;101750.38;;;21.02;57.73
72612;BME280;60655;52.182;4.474;2023-06-26T10:10:07;101754.81;;;20.71;57.89
72612;BME280;60655;52.182;4.474;2023-06-26T10:14:17;101754.59;;;21.35;57.81
72612;BME280;60655;52.182;4.474;2023-06-26T10:16:23;101742.22;;;21.54;56.31
72612;BME280;60655;52.182;4.474;2023-06-26T10:18:27;101738.41;;;21.50;57.41
72612;BME280;60655;52.182;4.474;2023-06-26T10:20:32;101741.69;;;21.63;57.07
72612;BME280;60655;52.182;4.474;2023-06-26T10:22:37;101745.22;;;21.83;55.96
72612;BME280;60655;52.182;4.474;2023-06-26T10:24:41;101753.56;;;21.56;55.54
72612;BME280;60655;52.182;4.474;2023-06-26T10:26:45;101752.72;;;21.36;57.08
72612;BME280;60655;52.182;4.474;2023-06-26T10:28:47;101752.75;;;21.56;56.21
72612;BME280;60655;52.182;4.474;2023-06-26T10:30:51;101756.31;;;21.77;55.55
72612;BME280;60655;52.182;4.474;2023-06-26T10:32:54;101758.97;;;21.67;57.02
72612;BME280;60655;52.182;4.474;2023-06-26T10:34:56;101766.00;;;21.68;56.99
72612;BME280;60655;52.182;4.474;2023-06-26T10:37:03;101765.25;;;21.82;56.86
72612;BME280;60655;52.182;4.474;2023-06-26T10:39:06;101764.75;;;22.06;55.60
72612;BME280;60655;52.182;4.474;2023-06-26T10:41:10;101783.97;;;22.04;54.94
72612;BME280;60655;52.182;4.474;2023-06-26T10:43:13;101786.84;;;21.72;55.53
72612;BME280;60655;52.182;4.474;2023-06-26T10:45:20;101795.16;;;21.45;56.71